createdAt,value
2023-05-05T00:02:29.042Z,9.80
2023-05-05T00:04:58.875Z,17.60
2023-05-05T00:07:28.687Z,10.07
2023-05-05T00:09:58.788Z,11.78
2023-05-05T00:12:28.623Z,11.57
2023-05-05T00:14:58.974Z,9.83
2023-05-05T00:17:28.814Z,10.13
2023-05-05T00:19:59.706Z,13.43
2023-05-05T00:22:29.745Z,11.75
2023-05-05T00:24:59.565Z,18.57
2023-05-05T00:27:29.343Z,11.73
2023-05-05T00:29:59.233Z,13.50
2023-05-05T00:32:29.069Z,14.73
2023-05-05T00:34:58.864Z,15.90
2023-05-05T00:37:28.666Z,13.83
2023-05-05T00:39:58.367Z,14.20
2023-05-05T00:42:28.448Z,11.53
2023-05-05T00:44:58.620Z,16.77
2023-05-05T00:47:28.433Z,13.23
2023-05-05T00:49:58.372Z,18.83
2023-05-05T00:52:28.344Z,15.27
2023-05-05T00:54:59.205Z,14.93
2023-05-05T00:57:29.262Z,14.47
2023-05-05T01:00:01.284Z,15.47
2023-05-05T01:02:31.391Z,18.77
2023-05-05T01:05:02.110Z,14.50
2023-05-05T01:07:40.914Z,15.33
2023-05-05T01:10:38.385Z,23.77
2023-05-05T01:13:20.476Z,20.12
2023-05-05T01:15:53.512Z,17.53
2023-05-05T01:18:34.877Z,20.50
2023-05-05T01:21:16.725Z,22.07
2023-05-05T01:23:55.505Z,19.07
2023-05-05T01:26:56.601Z,21.03
2023-05-05T01:29:44.100Z,19.80
2023-05-05T01:32:16.174Z,20.80
2023-05-05T01:34:51.873Z,22.60
2023-05-05T01:37:24.423Z,20.80
2023-05-05T01:39:57.288Z,23.60
2023-05-05T01:42:28.661Z,25.85
2023-05-05T01:44:59.604Z,21.17
2023-05-05T01:47:30.865Z,21.23
2023-05-05T01:50:02.388Z,21.50
2023-05-05T01:52:34.035Z,20.83
2023-05-05T01:55:05.558Z,21.77
2023-05-05T01:57:36.801Z,22.63
2023-05-05T02:00:09.776Z,20.77
2023-05-05T02:02:49.815Z,19.00
2023-05-05T02:05:23.414Z,19.02
2023-05-05T02:07:56.374Z,22.90
2023-05-05T02:10:26.220Z,22.00
2023-05-05T02:12:56.698Z,27.87
2023-05-05T02:15:28.644Z,20.53
2023-05-05T02:18:00.311Z,21.02
2023-05-05T02:20:32.299Z,23.40
2023-05-05T02:23:02.224Z,22.47
2023-05-05T02:25:34.818Z,24.00
2023-05-05T02:28:09.780Z,20.90
2023-05-05T02:30:41.616Z,21.57
2023-05-05T02:33:14.310Z,21.73
2023-05-05T02:35:47.822Z,21.77
2023-05-05T02:38:18.680Z,23.03
2023-05-05T02:40:52.056Z,24.60
2023-05-05T02:43:25.253Z,22.73
2023-05-05T02:45:55.063Z,23.23
2023-05-05T02:48:25.147Z,20.23
2023-05-05T02:50:55.593Z,20.20
2023-05-05T02:53:28.821Z,19.50
2023-05-05T02:56:07.159Z,19.87
2023-05-05T02:58:50.677Z,24.17
2023-05-05T03:01:29.014Z,21.17
2023-05-05T03:04:05.811Z,20.03
2023-05-05T03:06:42.577Z,20.33
2023-05-05T03:09:15.815Z,18.90
2023-05-05T03:12:02.040Z,21.63
2023-05-05T03:14:40.769Z,21.50
2023-05-05T03:17:13.676Z,19.60
2023-05-05T03:19:45.055Z,18.57
2023-05-05T03:22:15.142Z,20.27
2023-05-05T03:24:51.469Z,21.10
2023-05-05T03:29:51.600Z,20.27
2023-05-05T03:32:24.019Z,19.80
2023-05-05T03:34:55.586Z,20.67
2023-05-05T03:37:27.209Z,23.67
2023-05-05T03:39:57.000Z,17.93
2023-05-05T03:42:26.984Z,18.98
2023-05-05T03:44:57.200Z,18.43
2023-05-05T03:47:27.805Z,18.00
2023-05-05T03:49:58.420Z,16.37
2023-05-05T03:52:28.488Z,19.12
2023-05-05T03:54:59.970Z,18.17
2023-05-05T03:57:30.059Z,17.07
2023-05-05T03:59:59.902Z,19.23
2023-05-05T04:02:30.004Z,16.63
2023-05-05T04:05:00.292Z,23.35
2023-05-05T04:07:30.442Z,16.02
2023-05-05T04:10:00.386Z,14.63
2023-05-05T04:12:30.380Z,13.93
2023-05-05T04:15:00.351Z,15.83
2023-05-05T04:17:30.330Z,12.67
2023-05-05T04:20:00.653Z,12.77
2023-05-05T04:22:32.392Z,12.57
2023-05-05T04:25:02.369Z,10.47
2023-05-05T04:27:32.632Z,10.28
2023-05-05T04:30:02.622Z,13.10
2023-05-05T04:32:32.780Z,9.20
2023-05-05T04:35:02.574Z,7.10
2023-05-05T04:37:32.690Z,7.83
2023-05-05T04:40:02.796Z,8.17
2023-05-05T04:42:33.890Z,7.17
2023-05-05T04:45:04.194Z,10.83
2023-05-05T04:47:38.818Z,6.10
2023-05-05T04:50:11.501Z,9.20
2023-05-05T04:52:41.577Z,6.70
2023-05-05T04:55:11.684Z,8.27
2023-05-05T04:57:41.505Z,7.43
2023-05-05T05:00:12.762Z,8.14
2023-05-05T05:02:42.638Z,6.40
2023-05-05T05:05:12.448Z,7.05
2023-05-05T05:07:41.979Z,7.35
2023-05-05T05:10:13.456Z,7.00
2023-05-05T05:12:43.296Z,8.60
2023-05-05T05:15:14.575Z,7.17
2023-05-05T05:17:44.420Z,6.60
2023-05-05T05:20:15.394Z,7.20
2023-05-05T05:22:46.114Z,7.53
2023-05-05T05:25:17.731Z,17.10
2023-05-05T05:27:58.535Z,6.90
2023-05-05T05:30:21.036Z,8.15
2023-05-05T05:32:50.916Z,8.27
2023-05-05T05:35:20.860Z,7.17
2023-05-05T05:37:51.715Z,6.65
2023-05-05T05:40:21.412Z,10.90
2023-05-05T05:42:51.270Z,13.07
2023-05-05T05:45:21.649Z,7.00
2023-05-05T05:47:51.946Z,9.20
2023-05-05T05:50:22.337Z,9.67
2023-05-05T05:52:52.153Z,12.30
2023-05-05T05:55:22.000Z,10.88
2023-05-05T05:57:52.299Z,9.33
2023-05-05T06:00:22.375Z,6.90
2023-05-05T06:02:53.952Z,10.90
2023-05-05T06:05:25.163Z,10.17
2023-05-05T06:07:55.552Z,12.63
2023-05-05T06:10:28.525Z,13.40
2023-05-05T06:12:59.980Z,14.00
2023-05-05T06:15:30.066Z,10.87
2023-05-05T06:18:00.599Z,11.57
2023-05-05T06:20:30.548Z,13.58
2023-05-05T06:23:00.548Z,13.00
2023-05-05T06:25:30.998Z,18.10
2023-05-05T06:28:00.861Z,15.10
2023-05-05T06:30:30.828Z,14.15
2023-05-05T06:33:00.746Z,17.50
2023-05-05T06:35:30.539Z,14.30
2023-05-05T06:38:00.423Z,16.43
2023-05-05T06:40:30.093Z,14.37
2023-05-05T06:42:59.642Z,15.30
2023-05-05T06:45:31.200Z,18.47
2023-05-05T06:48:01.011Z,20.90
2023-05-05T06:50:30.956Z,16.40
2023-05-05T06:53:01.267Z,16.40
2023-05-05T06:55:31.529Z,19.73
2023-05-05T06:58:01.353Z,18.23
2023-05-05T07:00:31.658Z,17.57
2023-05-05T07:03:01.809Z,19.62
2023-05-05T07:05:31.711Z,22.10
2023-05-05T07:08:01.847Z,23.60
2023-05-05T07:10:33.061Z,19.15
2023-05-05T07:13:02.868Z,18.80
2023-05-05T07:15:32.679Z,18.93
2023-05-05T07:18:02.523Z,18.27
2023-05-05T07:20:32.148Z,20.20
2023-05-05T07:23:01.701Z,18.30
2023-05-05T07:25:31.811Z,17.10
2023-05-05T07:28:01.693Z,19.53
2023-05-05T07:30:31.826Z,16.10
2023-05-05T07:33:01.766Z,15.20
2023-05-05T07:35:31.662Z,13.20
2023-05-05T07:38:01.460Z,14.53
2023-05-05T07:40:31.307Z,14.33
2023-05-05T07:43:01.320Z,13.23
2023-05-05T07:45:31.400Z,14.10
2023-05-05T07:48:01.281Z,13.50
2023-05-05T07:50:30.819Z,9.10
2023-05-05T07:53:10.762Z,12.90
2023-05-05T07:55:32.072Z,13.20
2023-05-05T07:58:03.651Z,9.97
2023-05-05T08:00:33.228Z,10.85
2023-05-05T08:03:03.054Z,11.30
2023-05-05T08:05:32.964Z,9.35
2023-05-05T08:08:03.657Z,10.57
2023-05-05T08:10:33.155Z,8.57
2023-05-05T08:13:03.130Z,10.37
2023-05-05T08:15:32.944Z,11.93
2023-05-05T08:18:02.853Z,9.70
2023-05-05T08:20:32.504Z,10.60
2023-05-05T08:23:02.310Z,7.93
2023-05-05T08:25:31.853Z,9.25
2023-05-05T08:28:01.505Z,8.58
2023-05-05T08:30:31.809Z,11.43
2023-05-05T08:33:01.735Z,10.67
2023-05-05T08:35:31.980Z,12.65
2023-05-05T08:38:01.549Z,7.10
2023-05-05T08:40:37.558Z,6.60
2023-05-05T08:43:07.610Z,7.70
2023-05-05T08:45:39.867Z,8.10
2023-05-05T08:48:10.333Z,7.50
2023-05-05T08:50:41.009Z,6.83
2023-05-05T08:53:13.280Z,5.57
2023-05-05T08:55:53.238Z,7.20
2023-05-05T08:58:25.538Z,4.45
2023-05-05T09:00:57.432Z,9.53
2023-05-05T09:03:28.541Z,6.63
2023-05-05T09:05:58.752Z,5.73
2023-05-05T09:08:30.183Z,8.60
2023-05-05T09:11:01.840Z,4.17
2023-05-05T09:13:32.061Z,5.43
2023-05-05T09:16:01.853Z,7.80
2023-05-05T09:18:31.686Z,10.13
2023-05-05T09:21:02.038Z,7.83
2023-05-05T09:23:31.826Z,4.93
2023-05-05T09:26:08.122Z,4.57
2023-05-05T09:28:38.206Z,5.87
2023-05-05T09:31:17.085Z,5.80
2023-05-05T09:33:47.748Z,5.95
2023-05-05T09:36:17.633Z,6.67
2023-05-05T09:38:50.179Z,4.40
2023-05-05T09:41:23.003Z,7.10
2023-05-05T09:43:53.200Z,10.03
2023-05-05T09:46:23.463Z,5.15
2023-05-05T09:48:53.311Z,6.43
2023-05-05T09:51:32.490Z,8.37
2023-05-05T09:54:02.476Z,6.73
2023-05-05T09:56:41.353Z,6.03
2023-05-05T09:59:12.163Z,8.43
2023-05-05T10:01:43.678Z,7.90
2023-05-05T10:04:29.962Z,8.73
2023-05-05T10:07:00.188Z,10.90
2023-05-05T10:09:32.084Z,7.63
2023-05-05T10:12:02.457Z,8.13
2023-05-05T10:14:34.836Z,8.67
2023-05-05T10:17:04.975Z,9.43
2023-05-05T10:19:37.003Z,9.33
2023-05-05T10:22:11.433Z,4.93
2023-05-05T10:24:50.117Z,7.33
2023-05-05T10:27:24.563Z,8.97
2023-05-05T10:29:57.164Z,7.55
2023-05-05T10:32:57.467Z,6.53
2023-05-05T10:35:28.680Z,11.88
2023-05-05T10:38:00.989Z,8.20
2023-05-05T10:40:32.209Z,9.15
2023-05-05T10:43:02.241Z,7.45
2023-05-05T10:45:32.596Z,9.10
2023-05-05T10:48:05.591Z,10.00
2023-05-05T10:50:44.052Z,9.47
2023-05-05T10:53:28.750Z,6.05
2023-05-05T10:56:13.419Z,6.17
2023-05-05T10:58:55.600Z,6.67
2023-05-05T11:01:17.779Z,8.27
2023-05-05T11:03:47.599Z,7.37
2023-05-05T11:06:17.434Z,7.90
2023-05-05T11:08:47.307Z,5.17
2023-05-05T11:11:17.383Z,6.33
2023-05-05T11:13:47.453Z,6.03
2023-05-05T11:16:46.883Z,9.20
2023-05-05T11:19:45.580Z,7.03
2023-05-05T11:22:16.612Z,4.95
2023-05-05T11:24:47.173Z,2.70
2023-05-05T11:27:17.020Z,7.73
2023-05-05T11:30:06.979Z,9.10
2023-05-05T11:32:36.935Z,5.97
2023-05-05T11:35:08.691Z,11.77
2023-05-05T11:37:39.284Z,7.00
2023-05-05T11:40:23.550Z,5.00
2023-05-05T11:42:56.130Z,4.30
2023-05-05T11:45:26.401Z,3.90
2023-05-05T11:48:16.197Z,4.28
2023-05-05T11:50:46.218Z,5.40
2023-05-05T11:53:16.219Z,4.37
2023-05-05T11:55:46.028Z,4.93
2023-05-05T11:58:22.343Z,4.97
2023-05-05T12:00:52.312Z,3.83
2023-05-05T12:03:22.561Z,3.30
2023-05-05T12:05:56.823Z,4.77
2023-05-05T12:08:27.016Z,5.33
2023-05-05T12:11:11.552Z,3.87
2023-05-05T12:13:41.701Z,2.37
2023-05-05T12:16:16.225Z,5.48
2023-05-05T12:18:46.030Z,8.27
2023-05-05T12:21:19.417Z,6.75
2023-05-05T12:23:49.581Z,5.05
2023-05-05T12:26:32.638Z,4.42
2023-05-05T12:29:03.110Z,6.12
2023-05-05T12:31:40.133Z,5.60
2023-05-05T12:34:11.873Z,5.90
2023-05-05T12:36:42.269Z,4.17
2023-05-05T12:39:12.264Z,4.90
2023-05-05T12:41:42.033Z,7.95
2023-05-05T12:44:12.119Z,7.37
2023-05-05T12:46:48.699Z,4.27
2023-05-05T12:49:18.374Z,6.03
2023-05-05T12:51:55.476Z,3.13
2023-05-05T12:54:27.333Z,6.80
2023-05-05T12:56:58.440Z,3.40
2023-05-05T12:59:30.729Z,5.75
2023-05-05T13:02:03.940Z,3.53
2023-05-05T13:04:33.828Z,3.50
2023-05-05T13:07:19.052Z,4.40
2023-05-05T13:09:51.035Z,5.53
2023-05-05T13:12:22.182Z,3.70
2023-05-05T13:14:52.639Z,5.70
2023-05-05T13:17:23.022Z,6.83
2023-05-05T13:19:52.980Z,3.37
2023-05-05T13:22:22.787Z,4.63
2023-05-05T13:24:53.083Z,6.22
2023-05-05T13:27:23.552Z,6.50
2023-05-05T13:29:53.352Z,6.17
2023-05-05T13:32:22.887Z,6.55
2023-05-05T13:34:53.017Z,5.20
2023-05-05T13:37:22.862Z,5.80
2023-05-05T13:39:52.453Z,6.65
2023-05-05T13:42:22.277Z,9.95
2023-05-05T13:44:52.373Z,6.40
2023-05-05T13:47:22.436Z,3.80
2023-05-05T13:49:52.694Z,6.97
2023-05-05T13:52:22.457Z,2.73
2023-05-05T13:54:53.060Z,4.63
2023-05-05T13:57:23.601Z,3.97
2023-05-05T13:59:53.397Z,5.80
2023-05-05T14:02:22.984Z,4.35
2023-05-05T14:04:52.806Z,2.03
2023-05-05T14:07:22.604Z,3.57
2023-05-05T14:09:52.385Z,4.47
2023-05-05T14:12:23.545Z,4.00
2023-05-05T14:14:53.594Z,3.10
2023-05-05T14:17:23.417Z,4.33
2023-05-05T14:19:53.255Z,2.63
2023-05-05T14:22:23.067Z,2.90
2023-05-05T14:24:52.867Z,2.97
2023-05-05T14:27:22.672Z,1.70
2023-05-05T14:29:52.460Z,3.87
2023-05-05T14:32:22.936Z,3.40
2023-05-05T14:34:52.842Z,2.30
2023-05-05T14:37:22.702Z,2.80
2023-05-05T14:39:52.865Z,3.45
2023-05-05T14:42:22.389Z,1.40
2023-05-05T14:44:52.177Z,3.97
2023-05-05T14:47:21.984Z,1.47
2023-05-05T14:49:51.857Z,4.57
2023-05-05T14:52:21.701Z,1.63
2023-05-05T14:54:51.795Z,1.57
2023-05-05T14:57:21.969Z,1.10
2023-05-05T14:59:53.062Z,3.30
2023-05-05T15:02:23.224Z,1.70
2023-05-05T15:04:53.084Z,1.37
2023-05-05T15:07:24.638Z,1.97
2023-05-05T15:09:54.890Z,1.70
2023-05-05T15:12:25.943Z,1.80
2023-05-05T15:14:55.491Z,1.67
2023-05-05T15:17:26.029Z,1.20
2023-05-05T15:19:57.363Z,1.80
2023-05-05T15:22:26.870Z,1.83
2023-05-05T15:24:56.756Z,4.60
2023-05-05T15:27:26.896Z,1.77
2023-05-05T15:29:56.781Z,3.03
2023-05-05T15:32:26.644Z,3.27
2023-05-05T15:34:56.656Z,2.27
2023-05-05T15:37:28.300Z,1.53
2023-05-05T15:39:58.095Z,1.60
2023-05-05T15:42:27.868Z,2.27
2023-05-05T15:44:57.660Z,2.30
2023-05-05T15:47:27.574Z,1.80
2023-05-05T15:49:57.398Z,1.87
2023-05-05T15:52:27.175Z,3.10
2023-05-05T15:54:56.963Z,2.73
2023-05-05T15:57:26.966Z,3.80
2023-05-05T15:59:56.849Z,1.37
2023-05-05T16:02:26.734Z,1.60
2023-05-05T16:04:56.584Z,1.73
2023-05-05T16:07:26.924Z,2.70
2023-05-05T16:09:56.899Z,2.60
2023-05-05T16:12:26.690Z,2.02
2023-05-05T16:14:56.489Z,4.77
2023-05-05T16:17:26.389Z,4.37
2023-05-05T16:19:56.517Z,1.92
2023-05-05T16:22:26.152Z,1.93
2023-05-05T16:24:55.966Z,3.23
2023-05-05T16:27:26.422Z,4.50
2023-05-05T16:29:58.393Z,2.40
2023-05-05T16:32:28.010Z,2.00
2023-05-05T16:34:57.864Z,2.60
2023-05-05T16:37:27.683Z,5.47
2023-05-05T16:39:57.464Z,2.60
2023-05-05T16:42:27.256Z,2.62
2023-05-05T16:44:57.060Z,3.53
2023-05-05T16:47:27.250Z,2.17
2023-05-05T16:49:57.110Z,3.20
2023-05-05T16:52:26.909Z,0.95
2023-05-05T16:54:57.171Z,2.13
2023-05-05T16:57:27.690Z,1.72
2023-05-05T16:59:57.485Z,2.70
2023-05-05T17:02:27.041Z,2.15
2023-05-05T17:04:56.876Z,1.90
2023-05-05T17:07:26.460Z,2.45
2023-05-05T17:09:56.402Z,3.87
2023-05-05T17:12:26.176Z,5.80
2023-05-05T17:14:56.016Z,3.50
2023-05-05T17:17:26.063Z,2.07
2023-05-05T17:19:55.885Z,3.23
2023-05-05T17:22:25.722Z,1.80
2023-05-05T17:24:55.527Z,4.20
2023-05-05T17:27:25.416Z,2.97
2023-05-05T17:29:55.303Z,1.70
2023-05-05T17:32:25.194Z,2.53
2023-05-05T17:34:56.258Z,3.80
2023-05-05T17:37:26.123Z,5.33
2023-05-05T17:39:55.968Z,2.80
2023-05-05T17:42:27.029Z,3.60
2023-05-05T17:44:56.818Z,5.10
2023-05-05T17:47:26.893Z,4.13
2023-05-05T17:49:57.859Z,4.33
2023-05-05T17:52:27.657Z,5.13
2023-05-05T17:54:57.562Z,4.50
2023-05-05T17:57:27.383Z,4.70
2023-05-05T17:59:57.169Z,3.83
2023-05-05T18:02:27.423Z,3.15
2023-05-05T18:04:57.511Z,5.93
2023-05-05T18:07:28.354Z,4.87
2023-05-05T18:09:58.492Z,4.47
2023-05-05T18:12:28.289Z,5.47
2023-05-05T18:14:58.057Z,3.50
2023-05-05T18:17:27.853Z,4.63
2023-05-05T18:19:57.968Z,3.50
2023-05-05T18:22:27.872Z,3.83
2023-05-05T18:24:59.546Z,4.92
2023-05-05T18:27:31.642Z,3.83
2023-05-05T18:30:02.083Z,3.80
2023-05-05T18:32:32.225Z,4.03
2023-05-05T18:35:02.339Z,6.33
2023-05-05T18:37:32.441Z,4.70
2023-05-05T18:40:03.159Z,5.75
2023-05-05T18:42:33.254Z,4.35
2023-05-05T18:45:03.335Z,4.53
2023-05-05T18:47:33.799Z,6.62
2023-05-05T18:50:04.180Z,7.75
2023-05-05T18:52:34.707Z,7.97
2023-05-05T18:55:06.100Z,5.20
2023-05-05T18:57:35.916Z,5.30
2023-05-05T19:00:08.487Z,4.83
2023-05-05T19:02:38.681Z,7.22
2023-05-05T19:05:09.143Z,20.23
2023-05-05T19:07:39.055Z,13.50
2023-05-05T19:10:09.812Z,6.70
2023-05-05T19:12:39.387Z,4.50
2023-05-05T19:15:09.586Z,9.83
2023-05-05T19:17:39.457Z,5.85
2023-05-05T19:20:09.624Z,8.93
2023-05-05T19:22:39.432Z,7.67
2023-05-05T19:25:09.662Z,6.57
2023-05-05T19:27:39.671Z,6.87
2023-05-05T19:30:10.295Z,5.83
2023-05-05T19:32:39.867Z,6.00
2023-05-05T19:35:10.479Z,6.03
2023-05-05T19:37:40.660Z,4.93
2023-05-05T19:40:10.959Z,7.50
2023-05-05T19:42:41.058Z,7.93
2023-05-05T19:45:10.699Z,7.32
2023-05-05T19:47:40.599Z,8.60
2023-05-05T19:50:11.535Z,5.10
2023-05-05T19:52:41.792Z,6.27
2023-05-05T19:55:12.831Z,5.85
2023-05-05T19:57:42.412Z,9.75
2023-05-05T20:00:12.502Z,6.03
2023-05-05T20:02:44.572Z,8.97
2023-05-05T20:05:16.320Z,9.00
2023-05-05T20:07:46.997Z,7.70
2023-05-05T20:10:19.422Z,6.14
2023-05-05T20:12:50.121Z,5.60
2023-05-05T20:15:21.682Z,6.45
2023-05-05T20:17:51.553Z,5.80
2023-05-05T20:20:23.946Z,7.32
2023-05-05T20:22:53.458Z,6.30
2023-05-05T20:25:23.273Z,5.22
2023-05-05T20:27:53.076Z,6.23
2023-05-05T20:30:22.929Z,4.80
2023-05-05T20:32:53.457Z,7.30
2023-05-05T20:35:23.147Z,8.43
2023-05-05T20:37:52.925Z,5.67
2023-05-05T20:40:22.882Z,5.40
2023-05-05T20:42:52.693Z,5.93
2023-05-05T20:45:22.289Z,8.10
2023-05-05T20:47:52.470Z,6.30
2023-05-05T20:50:22.426Z,7.27
2023-05-05T20:52:52.351Z,6.83
2023-05-05T20:55:22.206Z,6.55
2023-05-05T20:57:52.005Z,8.83
2023-05-05T21:00:21.902Z,12.07
2023-05-05T21:02:51.769Z,7.10
2023-05-05T21:05:22.197Z,6.12
2023-05-05T21:07:53.563Z,8.57
2023-05-05T21:10:23.478Z,9.27
2023-05-05T21:12:53.410Z,8.63
2023-05-05T21:15:23.027Z,11.97
2023-05-05T21:17:52.938Z,9.77
2023-05-05T21:20:23.125Z,15.10
2023-05-05T21:22:52.985Z,12.80
2023-05-05T21:25:23.035Z,9.23
2023-05-05T21:27:52.522Z,8.25
2023-05-05T21:30:24.556Z,9.47
2023-05-05T21:32:54.406Z,7.03
2023-05-05T21:35:24.245Z,7.03
2023-05-05T21:37:54.050Z,8.77
2023-05-05T21:40:23.737Z,8.80
2023-05-05T21:42:53.302Z,10.10
2023-05-05T21:45:23.234Z,8.03
2023-05-05T21:47:53.110Z,10.10
2023-05-05T21:50:23.085Z,8.40
2023-05-05T21:52:52.866Z,9.70
2023-05-05T21:55:22.361Z,11.17
2023-05-05T21:57:52.156Z,10.03
2023-05-05T22:00:22.231Z,10.73
2023-05-05T22:02:52.189Z,9.67
2023-05-05T22:05:22.206Z,12.82
2023-05-05T22:07:52.030Z,9.13
2023-05-05T22:10:21.644Z,12.80
2023-05-05T22:12:51.913Z,9.63
2023-05-05T22:15:25.351Z,10.10
2023-05-05T22:17:54.516Z,15.57
2023-05-05T22:20:24.465Z,15.30
2023-05-05T22:22:54.266Z,13.97
2023-05-05T22:25:24.309Z,11.28
2023-05-05T22:27:54.093Z,13.50
2023-05-05T22:30:25.620Z,11.20
2023-05-05T22:32:55.439Z,13.80
2023-05-05T22:35:25.245Z,10.90
2023-05-05T22:37:55.032Z,12.87
2023-05-05T22:40:24.929Z,11.97
2023-05-05T22:42:55.081Z,11.40
2023-05-05T22:45:24.754Z,14.80
2023-05-05T22:47:55.439Z,14.63
2023-05-05T22:50:25.646Z,13.03
2023-05-05T22:52:55.531Z,14.73
2023-05-05T22:55:25.172Z,16.73
2023-05-05T22:57:55.352Z,11.78
2023-05-05T23:00:25.334Z,14.43
2023-05-05T23:02:55.427Z,19.03
2023-05-05T23:05:25.369Z,13.13
2023-05-05T23:07:55.192Z,15.73
2023-05-05T23:10:25.286Z,15.90
2023-05-05T23:12:55.141Z,16.97
2023-05-05T23:15:25.089Z,17.60
2023-05-05T23:17:54.923Z,27.33
2023-05-05T23:20:23.466Z,22.00
2023-05-05T23:22:52.809Z,17.87
2023-05-05T23:25:22.324Z,18.98
2023-05-05T23:27:52.124Z,19.80
2023-05-05T23:30:21.765Z,20.53
2023-05-05T23:32:51.604Z,18.93
2023-05-05T23:35:21.731Z,20.83
2023-05-05T23:37:51.513Z,23.20
2023-05-05T23:40:22.547Z,23.32
2023-05-05T23:42:52.344Z,21.50
2023-05-05T23:45:21.846Z,20.50
2023-05-05T23:47:52.339Z,20.47
2023-05-05T23:50:22.621Z,23.87
2023-05-05T23:52:52.542Z,21.90
2023-05-05T23:55:22.301Z,24.20
2023-05-05T23:57:53.024Z,21.70
